Alpine Maya — VRGM6 — position and weather

sailwx.info

Track history (hours):
 
Tides and Currents Weather Stations Pressure Air Temp Water Temp Dewpoint Dewpoint Depression Visibility Wind Speed Wind Dir Waves Ship Positions

Alpine Maya

Last reported at 2019-Feb-21 10:54 UTC. Time now 2019-Feb-21 12:07 UTC.
Position N 48°46' W 006°32'.

Length 183 m; draft 10.6 m.

Type: Ship. MMSI: 477733800.

Date/timePositionNaut miles runAvg speedWind from/ knotsBaromVisibWave heightAir tempDewpointWater temp
2019-Feb-21 10:54N 48°46' W 006°32'813.4
2019-Feb-21 10:19N 48°53' W 006°26'1013.2
2019-Feb-21 09:35N 49°01' W 006°19'113.1
2019-Feb-21 09:29N 49°02' W 006°18'613.0
2019-Feb-21 09:00N 49°07' W 006°13'812.3
2019-Feb-21 08:19N 49°14' W 006°06'411.5
2019-Feb-21 08:00N 49°16' W 006°01'510.9
2019-Feb-21 07:30N 49°19' W 005°54'610.9
2019-Feb-21 07:00N 49°23' W 005°48'510.4
2019-Feb-21 06:30N 49°27' W 005°43'510.1
2019-Feb-21 05:59N 49°30' W 005°36'5 9.9
2019-Feb-21 05:30N 49°33' W 005°30'610.1
2019-Feb-21 04:52N 49°37' W 005°23'1310.4
2019-Feb-21 03:38N 49°44' W 005°07'210.3
2019-Feb-21 03:24N 49°46' W 005°04'4 8.6
2019-Feb-21 02:56N 49°49' W 005°00'511.5
2019-Feb-21 02:30N 49°54' W 004°59'611.4
2019-Feb-21 01:58N 50°00' W 004°59'511.6
2019-Feb-21 01:30N 50°05' W 005°01'0 0.0
2019-Feb-20 16:27N 50°05' W 005°01'13 8.6
2019-Feb-20 14:58N 49°59' W 004°43'611.5
2019-Feb-20 14:28N 49°58' W 004°35'611.9
2019-Feb-20 13:57N 49°56' W 004°26'712.5
2019-Feb-20 13:25N 49°54' W 004°16'512.6
2019-Feb-20 13:00N 49°53' W 004°08'612.9
2019-Feb-20 12:30N 49°54' W 003°58'612.5
2019-Feb-20 12:00N 49°54' W 003°48'713.1
2019-Feb-20 11:31N 49°53' W 003°38'612.5
2019-Feb-20 11:01N 49°53' W 003°28'611.8
2019-Feb-20 10:30N 49°55' W 003°20'611.2
2019-Feb-20 10:01N 49°56' W 003°11'510.7
2019-Feb-20 09:30N 49°58' W 003°03'510.0
2019-Feb-20 09:00N 49°59' W 002°56'5 9.4
2019-Feb-20 08:30N 50°00' W 002°49'4 8.7
2019-Feb-20 08:01N 50°01' W 002°42'5 8.6
2019-Feb-20 07:22N 50°02' W 002°34'3 8.5
2019-Feb-20 07:00N 50°03' W 002°29'2410.3
2019-Feb-20 04:43N 50°06' W 001°52'313.5
2019-Feb-20 04:30N 50°06' W 001°48'714.4
2019-Feb-20 04:00N 50°05' W 001°37'1715.2
2019-Feb-20 02:51N 49°56' W 001°13'816.0
2019-Feb-20 02:21N 49°52' W 001°03'515.8
2019-Feb-20 02:00N 49°49' W 000°56'815.2
2019-Feb-20 01:27N 49°44' W 000°45'614.6
2019-Feb-20 01:01N 49°40' W 000°37'714.0
2019-Feb-20 00:30N 49°36' W 000°28'713.3
2019-Feb-20 00:00N 49°33' W 000°19'612.8
2019-Feb-19 23:30N 49°30' W 000°11'612.4
2019-Feb-19 23:00N 49°28' W 000°02'510.3
2019-Feb-19 22:30N 49°26' E 000°06'611.6
2019-Feb-19 22:00N 49°26' E 000°15'510.6
2019-Feb-19 21:30N 49°27' E 000°23'5 9.4
2019-Feb-19 21:00N 49°29' E 000°29'3 5.4
2019-Feb-19 20:30N 49°28' E 000°33'0 0.2
2019-Feb-19 20:00N 49°28' E 000°33'0 0.0
2019-Feb-19 19:30N 49°28' E 000°33'0 0.0
2019-Feb-19 19:00N 49°28' E 000°33'0 0.0
2019-Feb-19 18:30N 49°28' E 000°33'0 0.0
2019-Feb-19 18:00N 49°28' E 000°33'0 0.0
2019-Feb-19 17:30N 49°28' E 000°33'0 0.0
2019-Feb-19 17:00N 49°28' E 000°33'0 0.0
2019-Feb-19 16:30N 49°28' E 000°33'0 0.0
2019-Feb-19 16:00N 49°28' E 000°33'0 0.0
2019-Feb-19 15:30N 49°28' E 000°33'0 0.0
2019-Feb-19 15:00N 49°28' E 000°33'0 0.0
2019-Feb-19 14:30N 49°28' E 000°33'0 0.0
2019-Feb-19 14:00N 49°28' E 000°33'0 0.0
2019-Feb-19 13:30N 49°28' E 000°33'0 0.0
2019-Feb-19 13:00N 49°28' E 000°33'0 0.0
2019-Feb-19 12:30N 49°28' E 000°33'0 0.0
2019-Feb-19 12:00N 49°28' E 000°33'0 0.0
2019-Feb-19 11:30N 49°28' E 000°33'0 0.0
2019-Feb-19 11:00N 49°28' E 000°33'0 0.0
2019-Feb-19 10:30N 49°28' E 000°33'0 0.0
2019-Feb-19 10:00N 49°28' E 000°33'0 0.0
2019-Feb-19 09:30N 49°28' E 000°33'0 0.0
2019-Feb-19 09:00N 49°28' E 000°33'0 0.0
2019-Feb-19 08:30N 49°28' E 000°33'0 0.0
2019-Feb-19 08:00N 49°28' E 000°33'0 0.0
2019-Feb-19 07:30N 49°28' E 000°33'0 0.0
2019-Feb-19 07:00N 49°28' E 000°33'0 0.0
2019-Feb-19 06:30N 49°28' E 000°33'0 0.0
2019-Feb-19 06:00N 49°28' E 000°33'0 0.0
2019-Feb-19 05:30N 49°28' E 000°33'0 0.0
2019-Feb-19 05:00N 49°28' E 000°33'0 0.0
2019-Feb-19 04:30N 49°28' E 000°33'0 0.0
2019-Feb-19 04:00N 49°28' E 000°33'0 0.0
2019-Feb-19 03:30N 49°28' E 000°33'0 0.0
2019-Feb-19 03:00N 49°28' E 000°33'0 0.0
2019-Feb-19 02:30N 49°28' E 000°33'0 0.0
2019-Feb-19 02:00N 49°28' E 000°33'0 0.0
2019-Feb-19 01:30N 49°28' E 000°33'0 0.0
2019-Feb-19 01:00N 49°28' E 000°33'0 0.0
2019-Feb-19 00:30N 49°28' E 000°33'0 0.0
2019-Feb-19 00:00N 49°28' E 000°33'0 0.0
2019-Feb-18 23:30N 49°28' E 000°33'0 0.0
2019-Feb-18 23:00N 49°28' E 000°33'0 0.0
2019-Feb-18 22:30N 49°28' E 000°33'0 0.0
2019-Feb-18 22:00N 49°28' E 000°33'0 0.0
2019-Feb-18 21:30N 49°28' E 000°33'0 0.0
2019-Feb-18 21:00N 49°28' E 000°33'0 0.0
2019-Feb-18 20:30N 49°28' E 000°33'0 0.0
2019-Feb-18 20:00N 49°28' E 000°33'0 0.0
2019-Feb-18 19:30N 49°28' E 000°33'0 0.0
2019-Feb-18 19:00N 49°28' E 000°33'0 0.0
2019-Feb-18 18:30N 49°28' E 000°33'0 0.0
2019-Feb-18 18:00N 49°28' E 000°33'0 0.0
2019-Feb-18 17:30N 49°28' E 000°33'0 0.0
2019-Feb-18 17:00N 49°28' E 000°33'0 0.0
2019-Feb-18 16:30N 49°28' E 000°33'0 0.0
2019-Feb-18 16:00N 49°28' E 000°33'0 0.0
2019-Feb-18 15:30N 49°28' E 000°33'0 0.0
2019-Feb-18 15:00N 49°28' E 000°33'0 0.0
2019-Feb-18 14:30N 49°28' E 000°33'0 0.0
2019-Feb-18 14:00N 49°28' E 000°33'0 0.0
2019-Feb-18 13:30N 49°28' E 000°33'0 0.0
2019-Feb-18 13:00N 49°28' E 000°33'0 0.0
2019-Feb-18 12:30N 49°28' E 000°33'0 0.0
2019-Feb-18 12:00N 49°28' E 000°33'0 0.0
2019-Feb-18 11:30N 49°28' E 000°33'0 0.0
2019-Feb-18 11:00N 49°28' E 000°33'0 0.0
2019-Feb-18 10:30N 49°28' E 000°33'0 0.0
2019-Feb-18 10:00N 49°28' E 000°33'0 0.0
2019-Feb-18 09:30N 49°28' E 000°33'0 0.0
2019-Feb-18 09:00N 49°28' E 000°33'0 0.0
2019-Feb-18 08:30N 49°28' E 000°33'0 0.0
2019-Feb-18 08:00N 49°28' E 000°33'0 0.0
2019-Feb-18 07:30N 49°28' E 000°33'0 0.0
2019-Feb-18 07:00N 49°28' E 000°33'0 0.0
2019-Feb-18 06:30N 49°28' E 000°33'0 0.0
2019-Feb-18 06:00N 49°28' E 000°33'0 0.0
2019-Feb-18 05:30N 49°28' E 000°33'0 0.0
2019-Feb-18 05:00N 49°28' E 000°33'0 0.0
2019-Feb-18 04:30N 49°28' E 000°33'0 0.0
2019-Feb-18 04:00N 49°28' E 000°33'0 0.0
2019-Feb-18 03:30N 49°28' E 000°33'0 0.0
2019-Feb-18 03:00N 49°28' E 000°33'0 0.0
2019-Feb-18 02:30N 49°28' E 000°33'0 0.0
2019-Feb-18 02:00N 49°28' E 000°33'0 0.0
2019-Feb-18 01:30N 49°28' E 000°33'0 0.0
2019-Feb-18 01:00N 49°28' E 000°33'0 0.0
2019-Feb-18 00:30N 49°28' E 000°33'0 0.0
2019-Feb-18 00:00N 49°28' E 000°33'0 0.0
2019-Feb-17 23:30N 49°28' E 000°33'0 0.0
2019-Feb-17 23:00N 49°28' E 000°33'0 0.0
2019-Feb-17 22:30N 49°28' E 000°33'0 0.0
2019-Feb-17 22:00N 49°28' E 000°33'0 0.3
2019-Feb-17 21:30N 49°28' E 000°33'3 5.4
2019-Feb-17 21:00N 49°29' E 000°29'4 8.1
2019-Feb-17 20:30N 49°27' E 000°24'4 8.4
2019-Feb-17 20:00N 49°26' E 000°18'510.1
2019-Feb-17 19:30N 49°26' E 000°10'611.3
2019-Feb-17 19:00N 49°27' E 000°02'4 8.5
2019-Feb-17 18:30N 49°29' W 000°05'2 4.1
2019-Feb-17 18:01N 49°29' W 000°08'0 0.1
2019-Feb-17 17:28N 49°29' W 000°08'0 0.3
2019-Feb-17 16:58N 49°29' W 000°08'0 0.2
2019-Feb-17 16:28N 49°29' W 000°08'0 0.1
2019-Feb-17 15:58N 49°29' W 000°08'0 0.1
2019-Feb-17 15:28N 49°29' W 000°08'0 0.0
2019-Feb-17 14:58N 49°29' W 000°08'0 0.0
2019-Feb-17 14:28N 49°29' W 000°08'0 0.2
2019-Feb-17 13:58N 49°29' W 000°08'0 0.1
2019-Feb-17 13:28N 49°29' W 000°08'0 0.0
2019-Feb-17 12:58N 49°29' W 000°08'0 0.0
2019-Feb-17 12:28N 49°29' W 000°08'0 0.0
2019-Feb-17 11:58N 49°29' W 000°08'0 0.0
2019-Feb-17 11:28N 49°29' W 000°08'0 0.2
2019-Feb-17 11:00N 49°29' W 000°08'2 3.4
2019-Feb-17 10:30N 49°30' W 000°10'3 6.4
2019-Feb-17 10:00N 49°31' W 000°14'612.0
2019-Feb-17 09:30N 49°34' W 000°22'612.6
2019-Feb-17 09:00N 49°38' W 000°30'713.0
2019-Feb-17 08:30N 49°42' W 000°38'713.2
2019-Feb-17 08:00N 49°46' W 000°46'713.5
2019-Feb-17 07:30N 49°50' W 000°55'714.3
2019-Feb-17 07:00N 49°54' W 001°04'715.0
2019-Feb-17 06:31N 49°56' W 001°15'815.4
2019-Feb-17 06:01N 49°58' W 001°27'815.6
2019-Feb-17 05:29N 49°59' W 001°39'714.7
2019-Feb-17 05:01N 49°60' W 001°50'815.9
2019-Feb-17 04:30N 49°58' W 002°02'815.1
2019-Feb-17 04:00N 49°56' W 002°13'714.3
2019-Feb-17 03:31N 49°55' W 002°24'713.9
2019-Feb-17 03:00N 49°53' W 002°35'713.5
2019-Feb-17 02:30N 49°51' W 002°45'713.3
2019-Feb-17 02:00N 49°49' W 002°55'613.0
2019-Feb-17 01:30N 49°47' W 003°04'612.9
2019-Feb-17 01:00N 49°44' W 003°13'612.7
2019-Feb-17 00:30N 49°41' W 003°22'612.6
2019-Feb-17 00:00N 49°38' W 003°30'612.6
2019-Feb-16 23:30N 49°35' W 003°39'612.0
2019-Feb-16 23:00N 49°34' W 003°48'611.9
2019-Feb-16 22:30N 49°34' W 003°57'611.7
2019-Feb-16 22:00N 49°35' W 004°06'611.7
2019-Feb-16 21:30N 49°35' W 004°15'611.7
2019-Feb-16 21:00N 49°35' W 004°24'711.7
2019-Feb-16 20:27N 49°35' W 004°34'711.7
2019-Feb-16 19:48N 49°36' W 004°45'812.0
2019-Feb-16 19:10N 49°35' W 004°57'412.2
2019-Feb-16 18:51N 49°34' W 005°03'512.2
2019-Feb-16 18:27N 49°34' W 005°11'3512.8
2019-Feb-16 15:44N 49°30' W 006°04'1412.8
2019-Feb-16 14:37N 49°30' W 006°26'212.9
2019-Feb-16 14:29N 49°30' W 006°28'1012.9
2019-Feb-16 13:41N 49°32' W 006°44'  
Track history (hours):
 
Tides and Currents Weather Stations Pressure Air Temp Water Temp Dewpoint Dewpoint Depression Visibility Wind Speed Wind Dir Waves Ship Positions

Alpine Maya

Last reported at 2019-Feb-21 10:54 UTC. Time now 2019-Feb-21 12:07 UTC.
Position N 48°46' W 006°32'.

Length 183 m; draft 10.6 m.

Type: Ship. MMSI: 477733800.

Date/timePositionNaut miles runAvg speedWind from/ knotsBaromVisibWave heightAir tempDewpointWater temp
2019-Feb-21 10:54N 48°46' W 006°32'813.4
2019-Feb-21 10:19N 48°53' W 006°26'1013.2
2019-Feb-21 09:35N 49°01' W 006°19'113.1
2019-Feb-21 09:29N 49°02' W 006°18'613.0
2019-Feb-21 09:00N 49°07' W 006°13'812.3
2019-Feb-21 08:19N 49°14' W 006°06'411.5
2019-Feb-21 08:00N 49°16' W 006°01'510.9
2019-Feb-21 07:30N 49°19' W 005°54'610.9
2019-Feb-21 07:00N 49°23' W 005°48'510.4
2019-Feb-21 06:30N 49°27' W 005°43'510.1
2019-Feb-21 05:59N 49°30' W 005°36'5 9.9
2019-Feb-21 05:30N 49°33' W 005°30'610.1
2019-Feb-21 04:52N 49°37' W 005°23'1310.4
2019-Feb-21 03:38N 49°44' W 005°07'210.3
2019-Feb-21 03:24N 49°46' W 005°04'4 8.6
2019-Feb-21 02:56N 49°49' W 005°00'511.5
2019-Feb-21 02:30N 49°54' W 004°59'611.4
2019-Feb-21 01:58N 50°00' W 004°59'511.6
2019-Feb-21 01:30N 50°05' W 005°01'0 0.0
2019-Feb-20 16:27N 50°05' W 005°01'13 8.6
2019-Feb-20 14:58N 49°59' W 004°43'611.5
2019-Feb-20 14:28N 49°58' W 004°35'611.9
2019-Feb-20 13:57N 49°56' W 004°26'712.5
2019-Feb-20 13:25N 49°54' W 004°16'512.6
2019-Feb-20 13:00N 49°53' W 004°08'612.9
2019-Feb-20 12:30N 49°54' W 003°58'612.5
2019-Feb-20 12:00N 49°54' W 003°48'713.1
2019-Feb-20 11:31N 49°53' W 003°38'612.5
2019-Feb-20 11:01N 49°53' W 003°28'611.8
2019-Feb-20 10:30N 49°55' W 003°20'611.2
2019-Feb-20 10:01N 49°56' W 003°11'510.7
2019-Feb-20 09:30N 49°58' W 003°03'510.0
2019-Feb-20 09:00N 49°59' W 002°56'5 9.4
2019-Feb-20 08:30N 50°00' W 002°49'4 8.7
2019-Feb-20 08:01N 50°01' W 002°42'5 8.6
2019-Feb-20 07:22N 50°02' W 002°34'3 8.5
2019-Feb-20 07:00N 50°03' W 002°29'2410.3
2019-Feb-20 04:43N 50°06' W 001°52'313.5
2019-Feb-20 04:30N 50°06' W 001°48'714.4
2019-Feb-20 04:00N 50°05' W 001°37'1715.2
2019-Feb-20 02:51N 49°56' W 001°13'816.0
2019-Feb-20 02:21N 49°52' W 001°03'515.8
2019-Feb-20 02:00N 49°49' W 000°56'815.2
2019-Feb-20 01:27N 49°44' W 000°45'614.6
2019-Feb-20 01:01N 49°40' W 000°37'714.0
2019-Feb-20 00:30N 49°36' W 000°28'713.3
2019-Feb-20 00:00N 49°33' W 000°19'612.8
2019-Feb-19 23:30N 49°30' W 000°11'612.4
2019-Feb-19 23:00N 49°28' W 000°02'510.3
2019-Feb-19 22:30N 49°26' E 000°06'611.6
2019-Feb-19 22:00N 49°26' E 000°15'510.6
2019-Feb-19 21:30N 49°27' E 000°23'5 9.4
2019-Feb-19 21:00N 49°29' E 000°29'3 5.4
2019-Feb-19 20:30N 49°28' E 000°33'0 0.2
2019-Feb-19 20:00N 49°28' E 000°33'0 0.0
2019-Feb-19 19:30N 49°28' E 000°33'0 0.0
2019-Feb-19 19:00N 49°28' E 000°33'0 0.0
2019-Feb-19 18:30N 49°28' E 000°33'0 0.0
2019-Feb-19 18:00N 49°28' E 000°33'0 0.0
2019-Feb-19 17:30N 49°28' E 000°33'0 0.0
2019-Feb-19 17:00N 49°28' E 000°33'0 0.0
2019-Feb-19 16:30N 49°28' E 000°33'0 0.0
2019-Feb-19 16:00N 49°28' E 000°33'0 0.0
2019-Feb-19 15:30N 49°28' E 000°33'0 0.0
2019-Feb-19 15:00N 49°28' E 000°33'0 0.0
2019-Feb-19 14:30N 49°28' E 000°33'0 0.0
2019-Feb-19 14:00N 49°28' E 000°33'0 0.0
2019-Feb-19 13:30N 49°28' E 000°33'0 0.0
2019-Feb-19 13:00N 49°28' E 000°33'0 0.0
2019-Feb-19 12:30N 49°28' E 000°33'0 0.0
2019-Feb-19 12:00N 49°28' E 000°33'0 0.0
2019-Feb-19 11:30N 49°28' E 000°33'0 0.0
2019-Feb-19 11:00N 49°28' E 000°33'0 0.0
2019-Feb-19 10:30N 49°28' E 000°33'0 0.0
2019-Feb-19 10:00N 49°28' E 000°33'0 0.0
2019-Feb-19 09:30N 49°28' E 000°33'0 0.0
2019-Feb-19 09:00N 49°28' E 000°33'0 0.0
2019-Feb-19 08:30N 49°28' E 000°33'0 0.0
2019-Feb-19 08:00N 49°28' E 000°33'0 0.0
2019-Feb-19 07:30N 49°28' E 000°33'0 0.0
2019-Feb-19 07:00N 49°28' E 000°33'0 0.0
2019-Feb-19 06:30N 49°28' E 000°33'0 0.0
2019-Feb-19 06:00N 49°28' E 000°33'0 0.0
2019-Feb-19 05:30N 49°28' E 000°33'0 0.0
2019-Feb-19 05:00N 49°28' E 000°33'0 0.0
2019-Feb-19 04:30N 49°28' E 000°33'0 0.0
2019-Feb-19 04:00N 49°28' E 000°33'0 0.0
2019-Feb-19 03:30N 49°28' E 000°33'0 0.0
2019-Feb-19 03:00N 49°28' E 000°33'0 0.0
2019-Feb-19 02:30N 49°28' E 000°33'0 0.0
2019-Feb-19 02:00N 49°28' E 000°33'0 0.0
2019-Feb-19 01:30N 49°28' E 000°33'0 0.0
2019-Feb-19 01:00N 49°28' E 000°33'0 0.0
2019-Feb-19 00:30N 49°28' E 000°33'0 0.0
2019-Feb-19 00:00N 49°28' E 000°33'0 0.0
2019-Feb-18 23:30N 49°28' E 000°33'0 0.0
2019-Feb-18 23:00N 49°28' E 000°33'0 0.0
2019-Feb-18 22:30N 49°28' E 000°33'0 0.0
2019-Feb-18 22:00N 49°28' E 000°33'0 0.0
2019-Feb-18 21:30N 49°28' E 000°33'0 0.0
2019-Feb-18 21:00N 49°28' E 000°33'0 0.0
2019-Feb-18 20:30N 49°28' E 000°33'0 0.0
2019-Feb-18 20:00N 49°28' E 000°33'0 0.0
2019-Feb-18 19:30N 49°28' E 000°33'0 0.0
2019-Feb-18 19:00N 49°28' E 000°33'0 0.0
2019-Feb-18 18:30N 49°28' E 000°33'0 0.0
2019-Feb-18 18:00N 49°28' E 000°33'0 0.0
2019-Feb-18 17:30N 49°28' E 000°33'0 0.0
2019-Feb-18 17:00N 49°28' E 000°33'0 0.0
2019-Feb-18 16:30N 49°28' E 000°33'0 0.0
2019-Feb-18 16:00N 49°28' E 000°33'0 0.0
2019-Feb-18 15:30N 49°28' E 000°33'0 0.0
2019-Feb-18 15:00N 49°28' E 000°33'0 0.0
2019-Feb-18 14:30N 49°28' E 000°33'0 0.0
2019-Feb-18 14:00N 49°28' E 000°33'0 0.0
2019-Feb-18 13:30N 49°28' E 000°33'0 0.0
2019-Feb-18 13:00N 49°28' E 000°33'0 0.0
2019-Feb-18 12:30N 49°28' E 000°33'0 0.0
2019-Feb-18 12:00N 49°28' E 000°33'0 0.0
2019-Feb-18 11:30N 49°28' E 000°33'0 0.0
2019-Feb-18 11:00N 49°28' E 000°33'0 0.0
2019-Feb-18 10:30N 49°28' E 000°33'0 0.0
2019-Feb-18 10:00N 49°28' E 000°33'0 0.0
2019-Feb-18 09:30N 49°28' E 000°33'0 0.0
2019-Feb-18 09:00N 49°28' E 000°33'0 0.0
2019-Feb-18 08:30N 49°28' E 000°33'0 0.0
2019-Feb-18 08:00N 49°28' E 000°33'0 0.0
2019-Feb-18 07:30N 49°28' E 000°33'0 0.0
2019-Feb-18 07:00N 49°28' E 000°33'0 0.0
2019-Feb-18 06:30N 49°28' E 000°33'0 0.0
2019-Feb-18 06:00N 49°28' E 000°33'0 0.0
2019-Feb-18 05:30N 49°28' E 000°33'0 0.0
2019-Feb-18 05:00N 49°28' E 000°33'0 0.0
2019-Feb-18 04:30N 49°28' E 000°33'0 0.0
2019-Feb-18 04:00N 49°28' E 000°33'0 0.0
2019-Feb-18 03:30N 49°28' E 000°33'0 0.0
2019-Feb-18 03:00N 49°28' E 000°33'0 0.0
2019-Feb-18 02:30N 49°28' E 000°33'0 0.0
2019-Feb-18 02:00N 49°28' E 000°33'0 0.0
2019-Feb-18 01:30N 49°28' E 000°33'0 0.0
2019-Feb-18 01:00N 49°28' E 000°33'0 0.0
2019-Feb-18 00:30N 49°28' E 000°33'0 0.0
2019-Feb-18 00:00N 49°28' E 000°33'0 0.0
2019-Feb-17 23:30N 49°28' E 000°33'0 0.0
2019-Feb-17 23:00N 49°28' E 000°33'0 0.0
2019-Feb-17 22:30N 49°28' E 000°33'0 0.0
2019-Feb-17 22:00N 49°28' E 000°33'0 0.3
2019-Feb-17 21:30N 49°28' E 000°33'3 5.4
2019-Feb-17 21:00N 49°29' E 000°29'4 8.1
2019-Feb-17 20:30N 49°27' E 000°24'4 8.4
2019-Feb-17 20:00N 49°26' E 000°18'510.1
2019-Feb-17 19:30N 49°26' E 000°10'611.3
2019-Feb-17 19:00N 49°27' E 000°02'4 8.5
2019-Feb-17 18:30N 49°29' W 000°05'2 4.1
2019-Feb-17 18:01N 49°29' W 000°08'0 0.1
2019-Feb-17 17:28N 49°29' W 000°08'0 0.3
2019-Feb-17 16:58N 49°29' W 000°08'0 0.2
2019-Feb-17 16:28N 49°29' W 000°08'0 0.1
2019-Feb-17 15:58N 49°29' W 000°08'0 0.1
2019-Feb-17 15:28N 49°29' W 000°08'0 0.0
2019-Feb-17 14:58N 49°29' W 000°08'0 0.0
2019-Feb-17 14:28N 49°29' W 000°08'0 0.2
2019-Feb-17 13:58N 49°29' W 000°08'0 0.1
2019-Feb-17 13:28N 49°29' W 000°08'0 0.0
2019-Feb-17 12:58N 49°29' W 000°08'0 0.0
2019-Feb-17 12:28N 49°29' W 000°08'0 0.0
2019-Feb-17 11:58N 49°29' W 000°08'0 0.0
2019-Feb-17 11:28N 49°29' W 000°08'0 0.2
2019-Feb-17 11:00N 49°29' W 000°08'2 3.4
2019-Feb-17 10:30N 49°30' W 000°10'3 6.4
2019-Feb-17 10:00N 49°31' W 000°14'612.0
2019-Feb-17 09:30N 49°34' W 000°22'612.6
2019-Feb-17 09:00N 49°38' W 000°30'713.0
2019-Feb-17 08:30N 49°42' W 000°38'713.2
2019-Feb-17 08:00N 49°46' W 000°46'713.5
2019-Feb-17 07:30N 49°50' W 000°55'714.3
2019-Feb-17 07:00N 49°54' W 001°04'715.0
2019-Feb-17 06:31N 49°56' W 001°15'815.4
2019-Feb-17 06:01N 49°58' W 001°27'815.6
2019-Feb-17 05:29N 49°59' W 001°39'714.7
2019-Feb-17 05:01N 49°60' W 001°50'815.9
2019-Feb-17 04:30N 49°58' W 002°02'815.1
2019-Feb-17 04:00N 49°56' W 002°13'714.3
2019-Feb-17 03:31N 49°55' W 002°24'713.9
2019-Feb-17 03:00N 49°53' W 002°35'713.5
2019-Feb-17 02:30N 49°51' W 002°45'713.3
2019-Feb-17 02:00N 49°49' W 002°55'613.0
2019-Feb-17 01:30N 49°47' W 003°04'612.9
2019-Feb-17 01:00N 49°44' W 003°13'612.7
2019-Feb-17 00:30N 49°41' W 003°22'612.6
2019-Feb-17 00:00N 49°38' W 003°30'612.6
2019-Feb-16 23:30N 49°35' W 003°39'612.0
2019-Feb-16 23:00N 49°34' W 003°48'611.9
2019-Feb-16 22:30N 49°34' W 003°57'611.7
2019-Feb-16 22:00N 49°35' W 004°06'611.7
2019-Feb-16 21:30N 49°35' W 004°15'611.7
2019-Feb-16 21:00N 49°35' W 004°24'711.7
2019-Feb-16 20:27N 49°35' W 004°34'711.7
2019-Feb-16 19:48N 49°36' W 004°45'812.0
2019-Feb-16 19:10N 49°35' W 004°57'412.2
2019-Feb-16 18:51N 49°34' W 005°03'512.2
2019-Feb-16 18:27N 49°34' W 005°11'3512.8
2019-Feb-16 15:44N 49°30' W 006°04'1412.8
2019-Feb-16 14:37N 49°30' W 006°26'212.9
2019-Feb-16 14:29N 49°30' W 006°28'1012.9
2019-Feb-16 13:41N 49°32' W 006°44'  

Dump ship's entire track history